Time,TemperatureF,DewpointF,PressureIn,WindDirection,WindDirectionDegrees,WindSpeedMPH,WindSpeedGustMPH,Humidity,HourlyPrecipIn,Conditions,Clouds,dailyrainin,SolarRadiationWatts/m^2,SoftwareType,DateUTC
2013-11-11 00:02:00,37.0,28.0,-100.00,West,269,2.0,4.0,71,0.00,,,0.00,0.000000,,2013-11-11 07:02:00,
2013-11-11 00:12:00,37.0,28.0,-100.00,West,269,2.0,4.0,71,0.00,,,0.00,0.000000,,2013-11-11 07:12:00,
2013-11-11 00:43:00,36.0,29.0,-100.00,West,270,2.0,3.0,75,0.00,,,0.00,0.000000,,2013-11-11 07:43:00,
2013-11-11 00:52:00,36.0,29.0,-100.00,West,270,2.0,3.0,75,0.00,,,0.00,0.000000,,2013-11-11 07:52:00,
2013-11-11 01:02:00,36.0,29.0,-100.00,West,270,2.0,3.0,75,0.00,,,0.00,0.000000,,2013-11-11 08:02:00,
2013-11-11 01:11:00,36.0,29.0,-100.00,West,270,2.0,3.0,75,0.00,,,0.00,0.000000,,2013-11-11 08:11:00,
2013-11-11 01:42:00,35.0,29.0,-100.00,West,277,2.0,3.0,77,0.00,,,0.00,0.000000,,2013-11-11 08:42:00,
2013-11-11 01:52:00,35.0,29.0,-100.00,West,277,2.0,3.0,77,0.00,,,0.00,0.000000,,2013-11-11 08:52:00,
2013-11-11 02:02:00,35.0,29.0,-100.00,West,277,2.0,3.0,77,0.00,,,0.00,0.000000,,2013-11-11 09:02:00,
2013-11-11 02:11:00,35.0,29.0,-100.00,West,277,2.0,3.0,77,0.00,,,0.00,0.000000,,2013-11-11 09:11:00,
2013-11-11 02:43:00,36.0,29.0,-100.00,West,277,2.0,4.0,75,0.00,,,0.00,0.000000,,2013-11-11 09:43:00,
2013-11-11 02:53:00,36.0,29.0,-100.00,West,277,2.0,4.0,75,0.00,,,0.00,0.000000,,2013-11-11 09:53:00,
2013-11-11 03:03:00,36.0,29.0,-100.00,West,277,2.0,4.0,75,0.00,,,0.00,0.000000,,2013-11-11 10:03:00,
2013-11-11 03:13:00,36.0,29.0,-100.00,West,277,2.0,4.0,75,0.00,,,0.00,0.000000,,2013-11-11 10:13:00,
2013-11-11 03:42:00,37.0,29.0,-100.00,West,269,1.0,3.0,73,0.00,,,0.00,0.000000,,2013-11-11 10:42:00,
2013-11-11 03:52:00,37.0,29.0,-100.00,West,269,1.0,3.0,73,0.00,,,0.00,0.000000,,2013-11-11 10:52:00,
2013-11-11 04:03:00,37.0,29.0,-100.00,West,269,1.0,3.0,73,0.00,,,0.00,0.000000,,2013-11-11 11:03:00,
2013-11-11 04:12:00,37.0,29.0,-100.00,West,269,1.0,3.0,73,0.00,,,0.00,0.000000,,2013-11-11 11:12:00,
2013-11-11 04:42:00,35.0,29.0,-100.00,West,274,2.0,3.0,78,0.00,,,0.00,0.000000,,2013-11-11 11:42:00,
2013-11-11 04:52:00,35.0,29.0,-100.00,West,274,2.0,3.0,78,0.00,,,0.00,0.000000,,2013-11-11 11:52:00,
2013-11-11 05:02:00,35.0,29.0,-100.00,West,274,2.0,3.0,78,0.00,,,0.00,0.000000,,2013-11-11 12:02:00,
2013-11-11 05:12:00,35.0,29.0,-100.00,West,274,2.0,3.0,78,0.00,,,0.00,0.000000,,2013-11-11 12:12:00,
2013-11-11 05:42:00,34.0,28.0,-100.00,WNW,299,2.0,3.0,80,0.00,,,-99.99,0.000000,,2013-11-11 12:42:00,
2013-11-11 05:52:00,34.0,28.0,-100.00,WNW,299,2.0,3.0,80,0.00,,,-99.99,0.000000,,2013-11-11 12:52:00,
2013-11-11 06:01:00,34.0,28.0,-100.00,WNW,299,2.0,3.0,80,0.00,,,-99.99,0.000000,,2013-11-11 13:01:00,
2013-11-11 06:11:00,34.0,28.0,-100.00,WNW,299,2.0,3.0,80,0.00,,,-99.99,0.000000,,2013-11-11 13:11:00,
2013-11-11 06:42:00,35.0,28.0,-100.00,NW,311,2.0,3.0,76,0.00,,,-99.99,0.000000,,2013-11-11 13:42:00,
2013-11-11 06:52:00,35.0,28.0,-100.00,NW,311,2.0,3.0,76,0.00,,,-99.99,0.000000,,2013-11-11 13:52:00,
2013-11-11 07:02:00,35.0,28.0,-100.00,NW,311,2.0,3.0,76,0.00,,,-99.99,0.000000,,2013-11-11 14:02:00,
2013-11-11 07:11:00,35.0,28.0,-100.00,NW,311,2.0,3.0,76,0.00,,,-99.99,0.000000,,2013-11-11 14:11:00,
2013-11-11 07:42:00,35.0,28.0,-100.00,NW,321,2.0,3.0,75,0.00,,,-99.99,0.000000,,2013-11-11 14:42:00,
2013-11-11 07:52:00,35.0,28.0,-100.00,NW,321,2.0,3.0,75,0.00,,,-99.99,0.000000,,2013-11-11 14:52:00,
2013-11-11 08:01:00,35.0,28.0,-100.00,NW,321,2.0,3.0,75,0.00,,,-99.99,0.000000,,2013-11-11 15:01:00,
2013-11-11 08:11:00,35.0,28.0,-100.00,NW,321,2.0,3.0,75,0.00,,,-99.99,0.000000,,2013-11-11 15:11:00,
2013-11-11 08:43:00,34.0,28.0,-100.00,WNW,303,2.0,3.0,79,0.00,,,0.00,0.000000,,2013-11-11 15:43:00,
2013-11-11 08:53:00,34.0,28.0,-100.00,WNW,303,2.0,3.0,79,0.00,,,0.00,0.000000,,2013-11-11 15:53:00,
2013-11-11 09:03:00,34.0,28.0,-100.00,WNW,303,2.0,3.0,79,0.00,,,0.00,0.000000,,2013-11-11 16:03:00,
2013-11-11 09:13:00,34.0,28.0,-100.00,WNW,303,2.0,3.0,79,0.00,,,0.00,0.000000,,2013-11-11 16:13:00,
2013-11-11 09:42:00,36.0,27.0,-100.00,South,190,2.0,3.0,69,0.00,,,0.00,13.000000,,2013-11-11 16:42:00,
2013-11-11 09:53:00,36.0,27.0,-100.00,South,190,2.0,3.0,69,0.00,,,0.00,13.000000,,2013-11-11 16:53:00,
2013-11-11 10:02:00,36.0,27.0,-100.00,South,190,2.0,3.0,69,0.00,,,0.00,13.000000,,2013-11-11 17:02:00,
2013-11-11 10:12:00,36.0,27.0,-100.00,South,190,2.0,3.0,69,0.00,,,0.00,13.000000,,2013-11-11 17:12:00,
2013-11-11 10:42:00,39.0,28.0,-100.00,WNW,285,1.0,3.0,64,0.00,,,-99.99,89.000000,,2013-11-11 17:42:00,
2013-11-11 10:52:00,39.0,28.0,-100.00,WNW,285,1.0,3.0,64,0.00,,,-99.99,89.000000,,2013-11-11 17:52:00,
2013-11-11 11:01:00,39.0,28.0,-100.00,WNW,285,1.0,3.0,64,0.00,,,-99.99,89.000000,,2013-11-11 18:01:00,
2013-11-11 11:12:00,39.0,28.0,-100.00,WNW,285,1.0,3.0,64,0.00,,,-99.99,89.000000,,2013-11-11 18:12:00,
2013-11-11 11:42:00,44.0,28.0,-100.00,SSW,198,2.0,4.0,54,0.00,,,0.00,281.000000,,2013-11-11 18:42:00,
2013-11-11 11:52:00,44.0,28.0,-100.00,SSW,198,2.0,4.0,54,0.00,,,0.00,281.000000,,2013-11-11 18:52:00,
2013-11-11 12:01:00,44.0,28.0,-100.00,SSW,198,2.0,4.0,54,0.00,,,0.00,281.000000,,2013-11-11 19:01:00,
2013-11-11 12:12:00,44.0,28.0,-100.00,SSW,198,2.0,4.0,54,0.00,,,0.00,281.000000,,2013-11-11 19:12:00,
2013-11-11 12:42:00,48.0,32.0,-100.00,SSW,213,3.0,6.0,53,0.00,,,-99.99,456.000000,,2013-11-11 19:42:00,
2013-11-11 12:53:00,48.0,32.0,-100.00,SSW,213,3.0,6.0,53,0.00,,,-99.99,456.000000,,2013-11-11 19:53:00,
2013-11-11 13:02:00,48.0,32.0,-100.00,SSW,213,3.0,6.0,53,0.00,,,-99.99,456.000000,,2013-11-11 20:02:00,
2013-11-11 13:11:00,48.0,32.0,-100.00,SSW,213,3.0,6.0,53,0.00,,,-99.99,456.000000,,2013-11-11 20:11:00,
2013-11-11 13:42:00,50.0,31.0,-100.00,SSW,197,3.0,7.0,48,0.00,,,0.00,524.000000,,2013-11-11 20:42:00,
2013-11-11 13:52:00,50.0,31.0,-100.00,SSW,197,3.0,7.0,48,0.00,,,0.00,524.000000,,2013-11-11 20:52:00,
2013-11-11 14:02:00,50.0,31.0,-100.00,SSW,197,3.0,7.0,48,0.00,,,0.00,524.000000,,2013-11-11 21:02:00,
2013-11-11 14:11:00,50.0,31.0,-100.00,SSW,197,3.0,7.0,48,0.00,,,0.00,524.000000,,2013-11-11 21:11:00,
2013-11-11 14:43:00,51.0,33.0,-100.00,SSW,195,3.0,6.0,50,0.00,,,0.00,523.000000,,2013-11-11 21:43:00,
2013-11-11 14:55:00,51.0,33.0,-100.00,SSW,195,3.0,6.0,50,0.00,,,0.00,523.000000,,2013-11-11 21:55:00,
2013-11-11 15:04:00,51.0,33.0,-100.00,SSW,195,3.0,6.0,50,0.00,,,0.00,523.000000,,2013-11-11 22:04:00,
2013-11-11 15:13:00,51.0,33.0,-100.00,SSW,195,3.0,6.0,50,0.00,,,0.00,523.000000,,2013-11-11 22:13:00,
2013-11-11 15:43:00,52.0,31.0,-100.00,SSW,206,3.0,5.0,44,0.00,,,0.00,477.000000,,2013-11-11 22:43:00,
2013-11-11 15:53:00,52.0,31.0,-100.00,SSW,206,3.0,5.0,44,0.00,,,0.00,477.000000,,2013-11-11 22:53:00,
2013-11-11 16:03:00,52.0,31.0,-100.00,SSW,206,3.0,5.0,44,0.00,,,0.00,477.000000,,2013-11-11 23:03:00,
2013-11-11 16:12:00,52.0,31.0,-100.00,SSW,206,3.0,5.0,44,0.00,,,0.00,477.000000,,2013-11-11 23:12:00,
2013-11-11 16:42:00,50.0,31.0,-100.00,South,183,3.0,6.0,48,0.00,,,0.00,360.000000,,2013-11-11 23:42:00,
2013-11-11 16:53:00,50.0,31.0,-100.00,South,183,3.0,6.0,48,0.00,,,0.00,360.000000,,2013-11-11 23:53:00,
2013-11-11 17:02:00,50.0,31.0,-100.00,South,183,3.0,6.0,48,0.00,,,0.00,360.000000,,2013-11-12 00:02:00,
2013-11-11 17:11:00,50.0,31.0,-100.00,South,183,3.0,6.0,48,0.00,,,0.00,360.000000,,2013-11-12 00:11:00,
2013-11-11 17:42:00,46.0,30.0,-100.00,WSW,244,2.0,5.0,53,-99.99,,,0.00,157.000000,,2013-11-12 00:42:00,
2013-11-11 17:52:00,46.0,30.0,-100.00,WSW,244,2.0,5.0,53,-99.99,,,0.00,157.000000,,2013-11-12 00:52:00,
2013-11-11 18:01:00,46.0,30.0,-100.00,WSW,244,2.0,5.0,53,-99.99,,,0.00,157.000000,,2013-11-12 01:01:00,
2013-11-11 18:11:00,46.0,30.0,-100.00,WSW,244,2.0,5.0,53,-99.99,,,0.00,157.000000,,2013-11-12 01:11:00,
2013-11-11 18:42:00,43.0,25.0,-100.00,WNW,303,1.0,3.0,49,0.00,,,0.00,11.000000,,2013-11-12 01:42:00,
2013-11-11 18:52:00,43.0,25.0,-100.00,WNW,303,1.0,3.0,49,0.00,,,0.00,11.000000,,2013-11-12 01:52:00,
2013-11-11 19:01:00,43.0,25.0,-100.00,WNW,303,1.0,3.0,49,0.00,,,0.00,11.000000,,2013-11-12 02:01:00,
2013-11-11 19:11:00,43.0,25.0,-100.00,WNW,303,1.0,3.0,49,0.00,,,0.00,11.000000,,2013-11-12 02:11:00,
2013-11-11 19:42:00,42.0,26.0,-100.00,ENE,58,2.0,3.0,52,0.00,,,0.00,0.000000,,2013-11-12 02:42:00,
2013-11-11 19:52:00,42.0,26.0,-100.00,ENE,58,2.0,3.0,52,0.00,,,0.00,0.000000,,2013-11-12 02:52:00,
2013-11-11 20:02:00,42.0,26.0,-100.00,ENE,58,2.0,3.0,52,0.00,,,0.00,0.000000,,2013-11-12 03:02:00,
2013-11-11 20:11:00,42.0,26.0,-100.00,ENE,58,2.0,3.0,52,0.00,,,0.00,0.000000,,2013-11-12 03:11:00,
2013-11-11 20:45:00,42.0,26.0,-100.00,NNE,32,4.0,5.0,52,0.00,,,0.00,0.000000,,2013-11-12 03:45:00,
2013-11-11 20:54:00,42.0,26.0,-100.00,NNE,32,4.0,5.0,52,0.00,,,0.00,0.000000,,2013-11-12 03:54:00,
2013-11-11 21:04:00,42.0,26.0,-100.00,NNE,32,4.0,5.0,52,0.00,,,0.00,0.000000,,2013-11-12 04:04:00,
2013-11-11 21:13:00,42.0,26.0,-100.00,NNE,32,4.0,5.0,52,0.00,,,0.00,0.000000,,2013-11-12 04:13:00,
2013-11-11 21:44:00,41.0,25.0,-100.00,NE,54,5.0,8.0,52,0.00,,,0.00,0.000000,,2013-11-12 04:44:00,
2013-11-11 21:53:00,41.0,25.0,-100.00,NE,54,5.0,8.0,52,0.00,,,0.00,0.000000,,2013-11-12 04:53:00,
2013-11-11 22:03:00,41.0,25.0,-100.00,NE,54,5.0,8.0,52,0.00,,,0.00,0.000000,,2013-11-12 05:03:00,
2013-11-11 22:12:00,41.0,25.0,-100.00,NE,54,5.0,8.0,52,0.00,,,0.00,0.000000,,2013-11-12 05:12:00,
2013-11-11 22:44:00,41.0,25.0,-100.00,NE,51,5.0,9.0,52,0.00,,,0.00,0.000000,,2013-11-12 05:44:00,
2013-11-11 22:54:00,41.0,25.0,-100.00,NE,51,5.0,9.0,52,0.00,,,0.00,0.000000,,2013-11-12 05:54:00,
2013-11-11 23:03:00,41.0,25.0,-100.00,NE,51,5.0,9.0,52,0.00,,,0.00,0.000000,,2013-11-12 06:03:00,
2013-11-11 23:13:00,41.0,25.0,-100.00,NE,51,5.0,9.0,52,0.00,,,0.00,0.000000,,2013-11-12 06:13:00,
2013-11-11 23:42:00,40.0,22.0,-100.00,ENE,68,3.0,8.0,48,0.00,,,-99.99,0.000000,,2013-11-12 06:42:00,
2013-11-11 23:52:00,40.0,22.0,-100.00,ENE,68,3.0,8.0,48,0.00,,,-99.99,0.000000,,2013-11-12 06:52:00,